createdAt,value
2022-09-27T00:03:49.006Z,3.88
2022-09-27T00:08:46.180Z,3.85
2022-09-27T00:13:43.845Z,4.35
2022-09-27T00:18:41.145Z,4.00
2022-09-27T00:23:40.031Z,3.55
2022-09-27T00:28:37.920Z,4.13
2022-09-27T00:33:35.145Z,3.38
2022-09-27T00:38:32.931Z,4.47
2022-09-27T00:43:54.106Z,4.05
2022-09-27T00:49:05.148Z,3.45
2022-09-27T00:54:03.889Z,3.83
2022-09-27T00:59:12.075Z,3.70
2022-09-27T01:04:10.725Z,3.22
2022-09-27T01:09:10.557Z,3.42
2022-09-27T01:14:32.641Z,3.28
2022-09-27T01:19:53.320Z,3.40
2022-09-27T01:25:22.742Z,3.35
2022-09-27T01:30:23.050Z,3.30
2022-09-27T01:35:33.494Z,3.25
2022-09-27T01:40:43.212Z,3.08
2022-09-27T01:45:52.030Z,3.37
2022-09-27T01:50:56.067Z,3.75
2022-09-27T01:55:55.730Z,3.28
2022-09-27T02:00:55.105Z,3.70
2022-09-27T02:06:16.400Z,3.70
2022-09-27T02:11:15.349Z,3.97
2022-09-27T02:16:39.620Z,3.80
2022-09-27T02:21:48.715Z,3.70
2022-09-27T02:26:49.595Z,2.85
2022-09-27T02:31:46.885Z,3.15
2022-09-27T02:36:44.475Z,3.33
2022-09-27T02:41:41.915Z,3.00
2022-09-27T02:47:03.659Z,3.17
2022-09-27T02:52:37.904Z,4.00
2022-09-27T02:58:02.134Z,4.28
2022-09-27T03:03:05.650Z,3.78
2022-09-27T03:08:04.378Z,5.20
2022-09-27T03:13:01.983Z,4.55
2022-09-27T03:17:59.760Z,5.85
2022-09-27T03:22:57.135Z,5.82
2022-09-27T03:27:54.395Z,7.28
2022-09-27T03:32:52.269Z,7.25
2022-09-27T03:37:50.220Z,7.10
2022-09-27T03:42:50.590Z,6.03
2022-09-27T03:47:52.266Z,5.07
2022-09-27T03:52:50.212Z,4.53
2022-09-27T03:57:48.467Z,4.95
2022-09-27T04:02:49.970Z,5.32
2022-09-27T04:07:49.671Z,5.05
2022-09-27T04:12:48.170Z,5.22
2022-09-27T04:17:49.361Z,6.82
2022-09-27T04:22:48.017Z,5.93
2022-09-27T04:27:48.580Z,6.63
2022-09-27T04:32:46.155Z,4.80
2022-09-27T04:37:45.270Z,6.38
2022-09-27T04:42:42.665Z,7.18
2022-09-27T04:47:44.762Z,5.93
2022-09-27T04:52:42.260Z,4.93
2022-09-27T04:57:39.536Z,4.65
2022-09-27T05:02:36.789Z,4.53
2022-09-27T05:07:35.495Z,4.93
2022-09-27T05:12:32.891Z,4.75
2022-09-27T05:17:30.306Z,4.15
2022-09-27T05:22:27.945Z,4.78
2022-09-27T05:27:25.278Z,5.63
2022-09-27T05:32:22.680Z,6.00
2022-09-27T05:37:20.395Z,7.20
2022-09-27T05:42:19.880Z,7.45
2022-09-27T05:47:17.545Z,6.00
2022-09-27T05:52:16.767Z,6.72
2022-09-27T05:57:14.865Z,6.22
2022-09-27T06:02:12.617Z,5.60
2022-09-27T06:07:10.610Z,4.93
2022-09-27T06:12:11.779Z,5.28
2022-09-27T06:17:09.045Z,4.22
2022-09-27T06:22:06.200Z,4.13
2022-09-27T06:27:03.942Z,4.00
2022-09-27T06:32:01.545Z,4.75
2022-09-27T06:37:00.255Z,3.45
2022-09-27T06:41:57.930Z,4.50
2022-09-27T06:46:55.380Z,4.00
2022-09-27T06:51:53.526Z,3.88
2022-09-27T06:56:50.888Z,3.17
2022-09-27T07:01:48.432Z,2.88
2022-09-27T07:06:46.127Z,3.25
2022-09-27T07:11:46.152Z,2.28
2022-09-27T07:21:41.326Z,2.90
2022-09-27T07:26:38.554Z,2.92
2022-09-27T07:31:37.244Z,2.15
2022-09-27T07:36:34.470Z,3.00
2022-09-27T07:41:32.110Z,2.97
2022-09-27T07:46:31.218Z,3.22
2022-09-27T07:51:28.880Z,3.47
2022-09-27T07:56:26.179Z,2.35
2022-09-27T08:01:23.676Z,2.45
2022-09-27T08:06:21.279Z,2.75
2022-09-27T08:11:19.242Z,2.53
2022-09-27T08:16:16.508Z,2.97
2022-09-27T08:21:14.204Z,2.80
2022-09-27T08:26:11.414Z,2.25
2022-09-27T08:31:08.725Z,2.58
2022-09-27T08:36:11.810Z,2.28
2022-09-27T08:41:34.061Z,2.65
2022-09-27T08:47:02.723Z,2.58
2022-09-27T08:52:01.124Z,3.30
2022-09-27T08:57:12.883Z,2.83
2022-09-27T09:02:21.981Z,2.72
2022-09-27T09:07:38.307Z,2.35
2022-09-27T09:13:00.915Z,2.47
2022-09-27T09:18:07.947Z,2.70
2022-09-27T09:23:08.163Z,2.50
2022-09-27T09:28:20.787Z,2.78
2022-09-27T09:33:52.938Z,2.35
2022-09-27T09:38:57.226Z,2.35
2022-09-27T09:44:28.240Z,2.60
2022-09-27T09:49:39.467Z,2.58
2022-09-27T09:54:49.712Z,3.00
2022-09-27T09:59:55.558Z,2.78
2022-09-27T10:04:53.087Z,3.05
2022-09-27T10:09:57.428Z,3.13
2022-09-27T10:14:57.972Z,1.75
2022-09-27T10:19:58.486Z,1.50
2022-09-27T10:24:57.324Z,2.00
2022-09-27T10:29:59.610Z,1.52
2022-09-27T10:34:57.257Z,1.95
2022-09-27T10:39:55.354Z,1.33
2022-09-27T10:44:52.783Z,1.25
2022-09-27T10:49:53.929Z,1.52
2022-09-27T10:54:56.993Z,1.30
2022-09-27T10:59:59.557Z,1.65
2022-09-27T11:05:28.088Z,0.80
2022-09-27T11:10:29.895Z,1.38
2022-09-27T11:15:31.283Z,0.70
2022-09-27T11:21:02.967Z,1.10
2022-09-27T11:31:16.440Z,1.40
2022-09-27T11:36:46.358Z,1.50
2022-09-27T11:41:46.777Z,0.88
2022-09-27T11:46:50.891Z,1.20
2022-09-27T11:52:01.098Z,2.13
2022-09-27T11:57:01.041Z,1.20
2022-09-27T12:07:43.967Z,1.77
2022-09-27T12:12:45.448Z,1.40
2022-09-27T12:17:46.953Z,1.00
2022-09-27T12:23:07.307Z,1.17
2022-09-27T12:28:09.016Z,0.80
2022-09-27T12:33:42.336Z,0.75
2022-09-27T12:39:12.293Z,0.75
2022-09-27T12:44:12.268Z,1.00
2022-09-27T12:49:38.888Z,0.73
2022-09-27T12:55:07.018Z,0.98
2022-09-27T13:00:13.037Z,0.70
2022-09-27T13:05:41.778Z,0.70
2022-09-27T13:10:41.908Z,0.50
2022-09-27T13:20:37.494Z,0.52
2022-09-27T13:25:56.757Z,0.95
2022-09-27T13:30:55.553Z,0.73
2022-09-27T13:36:25.078Z,0.70
2022-09-27T13:41:22.307Z,1.00
2022-09-27T13:46:23.898Z,0.88
2022-09-27T13:51:34.202Z,1.00
2022-09-27T13:56:40.552Z,1.00
2022-09-27T14:01:42.573Z,0.90
2022-09-27T14:06:51.737Z,0.80
2022-09-27T14:11:57.049Z,0.65
2022-09-27T14:16:54.621Z,1.33
2022-09-27T14:21:52.827Z,0.75
2022-09-27T14:27:13.344Z,4.38
2022-09-27T14:32:13.513Z,3.80
2022-09-27T14:37:26.605Z,1.65
2022-09-27T14:42:44.457Z,1.67
2022-09-27T14:47:47.497Z,2.38
2022-09-27T14:52:45.290Z,3.75
2022-09-27T14:57:49.502Z,3.00
2022-09-27T15:02:48.151Z,1.63
2022-09-27T15:07:47.607Z,1.20
2022-09-27T15:12:51.577Z,1.05
2022-09-27T15:17:49.015Z,1.10
2022-09-27T15:22:47.007Z,0.88
2022-09-27T15:28:06.370Z,1.40
2022-09-27T15:33:05.226Z,2.38
2022-09-27T15:38:29.166Z,10.65
2022-09-27T15:43:37.263Z,2.42
2022-09-27T15:48:37.833Z,1.92
2022-09-27T15:53:35.107Z,2.03
2022-09-27T15:58:34.691Z,1.77
2022-09-27T16:03:32.629Z,2.40
2022-09-27T16:08:30.244Z,1.83
2022-09-27T16:13:32.740Z,1.77
2022-09-27T16:18:31.774Z,1.40
2022-09-27T16:23:29.203Z,1.75
2022-09-27T16:28:26.395Z,3.05
2022-09-27T16:39:16.157Z,2.35
2022-09-27T16:44:17.556Z,3.47
2022-09-27T16:49:33.747Z,3.05
2022-09-27T16:54:31.335Z,3.13
2022-09-27T16:59:32.647Z,3.40
2022-09-27T17:04:33.068Z,5.00
2022-09-27T17:09:30.462Z,3.17
2022-09-27T17:14:27.968Z,3.83
2022-09-27T17:19:25.647Z,4.43
2022-09-27T17:24:29.516Z,4.28
2022-09-27T17:29:26.749Z,5.03
2022-09-27T17:34:24.135Z,5.68
2022-09-27T17:39:22.521Z,4.47
2022-09-27T17:44:20.527Z,6.88
2022-09-27T17:49:36.395Z,7.32
2022-09-27T17:54:33.595Z,10.40
2022-09-27T17:59:31.264Z,19.70
2022-09-27T18:04:28.705Z,19.63
2022-09-27T18:09:25.972Z,11.55
2022-09-27T18:14:29.894Z,10.52
2022-09-27T18:19:27.563Z,10.65
2022-09-27T18:24:26.372Z,6.28
2022-09-27T18:29:23.643Z,6.68
2022-09-27T18:34:21.050Z,11.43
2022-09-27T18:39:19.752Z,9.77
2022-09-27T18:44:18.248Z,7.05
2022-09-27T18:49:27.802Z,7.85
2022-09-27T18:54:30.169Z,7.40
2022-09-27T18:59:29.036Z,5.45
2022-09-27T19:04:44.213Z,4.55
2022-09-27T19:09:41.440Z,5.28
2022-09-27T19:14:44.293Z,3.22
2022-09-27T19:19:41.863Z,3.40
2022-09-27T19:24:39.192Z,3.58
2022-09-27T19:29:43.260Z,3.53
2022-09-27T19:34:40.542Z,4.55
2022-09-27T19:39:37.933Z,4.28
2022-09-27T19:44:35.409Z,3.92
2022-09-27T19:49:32.661Z,2.90
2022-09-27T19:54:32.690Z,3.22
2022-09-27T19:59:36.421Z,4.75
2022-09-27T20:04:33.673Z,4.18
2022-09-27T20:09:30.941Z,3.67
2022-09-27T20:14:28.141Z,4.22
2022-09-27T20:19:28.619Z,4.72
2022-09-27T20:24:25.989Z,4.28
2022-09-27T20:29:29.813Z,5.53
2022-09-27T20:34:27.388Z,3.50
2022-09-27T20:39:24.618Z,5.85
2022-09-27T20:44:22.089Z,6.32
2022-09-27T20:49:19.742Z,6.80
2022-09-27T20:54:17.258Z,5.72
2022-09-27T20:59:20.762Z,4.25
2022-09-27T21:04:19.994Z,4.88
2022-09-27T21:09:19.504Z,5.13
2022-09-27T21:14:17.288Z,4.73
2022-09-27T21:19:14.832Z,3.80
2022-09-27T21:24:12.086Z,3.97
2022-09-27T21:29:11.811Z,4.43
2022-09-27T21:34:09.182Z,4.80
2022-09-27T21:39:08.941Z,4.63
2022-09-27T21:44:07.419Z,4.65
2022-09-27T21:49:04.798Z,4.07
2022-09-27T21:54:05.582Z,4.65
2022-09-27T21:59:03.484Z,4.18
2022-09-27T22:04:02.772Z,5.45
2022-09-27T22:09:01.534Z,6.03
2022-09-27T22:13:59.545Z,6.25
2022-09-27T22:18:57.287Z,5.93
2022-09-27T22:23:56.556Z,5.13
2022-09-27T22:28:54.183Z,4.18
2022-09-27T22:33:54.732Z,4.63
2022-09-27T22:38:52.605Z,4.90
2022-09-27T22:43:50.047Z,4.38
2022-09-27T22:48:47.319Z,3.78
2022-09-27T22:53:44.866Z,4.30
2022-09-27T22:58:45.522Z,4.15
2022-09-27T23:03:43.579Z,3.70
2022-09-27T23:08:40.833Z,3.63
2022-09-27T23:13:40.948Z,3.28
2022-09-27T23:18:44.686Z,3.63
2022-09-27T23:23:47.477Z,3.85
2022-09-27T23:28:44.848Z,3.17
2022-09-27T23:33:45.111Z,3.83
2022-09-27T23:43:44.600Z,3.92
2022-09-27T23:48:42.729Z,4.47
2022-09-27T23:53:40.401Z,4.20
2022-09-27T23:58:42.921Z,4.68
